Time;durP1;ratioP1;P1;durP2;ratioP2;P2;SDS_P1;SDS_P2;PMS_P1;PMS_P2;Temp;Humidity;BMP_temperature;BMP_pressure;BME280_temperature;BME280_humidity;BME280_pressure;Samples;Min_cycle;Max_cycle;Signal;HPM_P1;HPM_P2
2022/07/10 00:02:22;;;;;;;2.80;2.50;;;;;;;13.87;74.29;99821.91;214295;1277;140881;-64
2022/07/10 00:07:27;;;;;;;2.70;2.50;;;;;;;13.84;73.85;99809.23;214590;1276;139761;-62
2022/07/10 00:12:31;;;;;;;4.40;3.40;;;;;;;13.76;73.93;99809.16;214425;1276;232731;-65
2022/07/10 00:17:38;;;;;;;2.70;2.50;;;;;;;13.72;74.59;99807.05;212957;1277;141674;-63
2022/07/10 00:22:43;;;;;;;5.20;3.30;;;;;;;13.63;74.35;99805.45;213685;1277;141509;-63
2022/07/10 00:27:48;;;;;;;4.30;3.20;;;;;;;13.61;74.84;99805.97;213214;1277;142327;-63
2022/07/10 00:32:52;;;;;;;3.60;3.20;;;;;;;13.72;74.99;99800.84;213672;1276;142289;-64
2022/07/10 00:37:57;;;;;;;3.20;3.00;;;;;;;13.85;75.25;99796.01;213857;1277;141322;-63
2022/07/10 00:43:02;;;;;;;2.60;2.40;;;;;;;13.89;75.16;99787.32;214056;1276;152247;-64
2022/07/10 00:48:09;;;;;;;3.70;2.50;;;;;;;13.73;74.97;99785.14;213667;1276;140574;-64
2022/07/10 00:53:14;;;;;;;3.20;2.90;;;;;;;13.70;75.42;99787.48;213134;1277;142094;-63
2022/07/10 00:58:19;;;;;;;2.80;2.60;;;;;;;13.81;75.82;99786.44;213792;1276;141727;-62
2022/07/10 01:03:23;;;;;;;5.50;3.70;;;;;;;13.93;75.84;99790.56;213172;1276;140494;-64
2022/07/10 01:08:28;;;;;;;3.60;3.30;;;;;;;14.01;75.69;99789.66;214653;1276;141643;-64
2022/07/10 01:13:32;;;;;;;4.70;3.30;;;;;;;14.06;75.58;99783.12;214149;1276;140521;-64
2022/07/10 01:18:36;;;;;;;2.80;2.70;;;;;;;14.14;75.97;99781.61;214978;1275;141323;-64
2022/07/10 01:23:41;;;;;;;3.50;3.20;;;;;;;14.08;75.72;99777.34;214627;1276;143150;-63
2022/07/10 01:28:48;;;;;;;3.70;3.40;;;;;;;14.05;75.80;99776.64;215455;1276;140216;-64
2022/07/10 01:33:54;;;;;;;4.00;3.40;;;;;;;14.10;75.78;99767.48;215676;1276;142180;-64
2022/07/10 01:38:59;;;;;;;3.90;3.60;;;;;;;14.17;75.82;99761.85;215448;1276;140547;-62
2022/07/10 01:44:03;;;;;;;4.70;4.00;;;;;;;14.24;75.86;99758.58;213977;1276;139934;-63
2022/07/10 01:49:08;;;;;;;3.50;3.20;;;;;;;14.26;75.78;99751.48;214940;1276;140146;-64
2022/07/10 01:54:12;;;;;;;3.40;3.10;;;;;;;14.33;76.01;99751.30;214947;1276;140102;-62
2022/07/10 01:59:17;;;;;;;4.10;3.70;;;;;;;14.37;75.87;99749.44;214413;1276;139986;-65
2022/07/10 02:04:41;;;;;;;4.20;3.80;;;;;;;14.37;75.84;99749.60;214841;1276;140670;-64
2022/07/10 02:09:46;;;;;;;3.70;3.20;;;;;;;14.33;75.70;99751.88;213163;1276;141106;-63
2022/07/10 02:14:50;;;;;;;4.50;3.00;;;;;;;14.19;75.47;99752.23;213766;1276;141358;-63
2022/07/10 02:19:55;;;;;;;7.90;3.50;;;;;;;14.14;75.82;99756.58;214014;1276;231688;-63
2022/07/10 02:24:59;;;;;;;5.50;3.90;;;;;;;14.11;76.26;99755.00;213514;1276;142488;-64
2022/07/10 02:30:05;;;;;;;4.50;4.00;;;;;;;14.05;76.08;99753.84;213336;1276;140372;-62
2022/07/10 02:35:09;;;;;;;5.40;3.50;;;;;;;14.08;76.44;99773.09;213767;1276;142271;-62
2022/07/10 02:40:13;;;;;;;3.00;2.70;;;;;;;14.09;76.60;99764.04;214545;1276;140487;-64
2022/07/10 02:45:17;;;;;;;4.10;3.40;;;;;;;14.07;76.40;99758.62;213893;1275;142140;-63
2022/07/10 02:50:22;;;;;;;7.30;3.10;;;;;;;14.04;76.64;99753.09;214777;1276;139505;-64
2022/07/10 02:55:27;;;;;;;4.30;3.10;;;;;;;13.99;76.56;99749.77;214000;1276;139443;-65
2022/07/10 03:00:31;;;;;;;9.60;3.40;;;;;;;13.98;76.71;99748.22;213677;1276;139927;-63
2022/07/10 03:05:35;;;;;;;3.40;2.80;;;;;;;14.02;77.15;99744.23;215085;1276;140386;-64
2022/07/10 03:10:41;;;;;;;8.40;3.40;;;;;;;14.11;77.14;99739.61;214201;1276;141575;-64
2022/07/10 03:15:45;;;;;;;2.70;2.50;;;;;;;14.19;76.94;99745.77;214673;1275;140356;-64
2022/07/10 03:20:50;;;;;;;8.00;3.20;;;;;;;14.15;76.74;99746.45;215728;1276;139864;-64
2022/07/10 03:25:54;;;;;;;2.50;2.30;;;;;;;14.13;77.03;99740.21;215750;1276;139672;-64
2022/07/10 03:30:58;;;;;;;2.90;2.60;;;;;;;14.19;77.21;99730.77;215925;1276;140668;-64
2022/07/10 03:36:03;;;;;;;2.60;2.40;;;;;;;14.23;77.02;99727.31;213505;1276;140278;-64
2022/07/10 03:41:07;;;;;;;2.80;2.60;;;;;;;14.29;77.29;99718.29;215021;1276;140025;-64
2022/07/10 03:46:12;;;;;;;3.40;2.50;;;;;;;14.32;77.19;99715.46;214577;1276;140896;-64
2022/07/10 03:51:16;;;;;;;3.90;2.90;;;;;;;14.38;77.19;99715.33;214827;1276;207073;-64
2022/07/10 04:01:44;;;;;;;5.00;3.50;;;;;;;14.45;77.21;99712.23;214141;1276;141198;-63
2022/07/10 04:06:48;;;;;;;4.80;3.00;;;;;;;14.50;77.14;99711.98;214148;1276;140222;-62
2022/07/10 04:11:53;;;;;;;2.90;2.60;;;;;;;14.48;77.00;99708.60;213382;1276;140789;-64
2022/07/10 04:16:56;;;;;;;3.80;2.70;;;;;;;14.43;77.37;99708.55;213845;1276;140420;-63
2022/07/10 04:22:01;;;;;;;6.90;3.50;;;;;;;14.43;77.51;99712.74;213582;1276;140430;-64
2022/07/10 04:27:06;;;;;;;3.40;3.10;;;;;;;14.53;77.65;99715.65;214755;1276;142120;-63
2022/07/10 04:32:11;;;;;;;3.40;3.10;;;;;;;14.68;77.74;99714.54;213677;1276;140371;-64
2022/07/10 04:37:15;;;;;;;3.80;2.90;;;;;;;14.83;77.59;99709.61;213250;1276;140274;-63
2022/07/10 04:42:19;;;;;;;4.20;2.90;;;;;;;14.99;77.43;99703.12;213441;1276;140561;-64
2022/07/10 04:47:24;;;;;;;3.50;2.40;;;;;;;15.30;77.34;99706.89;213306;1276;140188;-64
2022/07/10 04:52:28;;;;;;;3.30;2.70;;;;;;;15.76;76.80;99702.11;214061;1276;141561;-64
2022/07/10 04:57:33;;;;;;;3.60;2.30;;;;;;;15.71;76.36;99703.62;213784;1276;141703;-66
2022/07/10 05:02:36;;;;;;;3.00;2.40;;;;;;;15.87;76.15;99707.70;213574;1276;139581;-63
2022/07/10 05:07:42;;;;;;;3.30;2.30;;;;;;;16.52;75.45;99708.75;215859;1276;140347;-65
2022/07/10 05:12:47;;;;;;;3.80;2.20;;;;;;;17.20;74.61;99707.60;214331;1276;140137;-64
2022/07/10 05:17:52;;;;;;;6.00;1.80;;;;;;;17.64;73.65;99710.82;215862;1276;139812;-64
2022/07/10 05:22:56;;;;;;;5.20;1.40;;;;;;;18.48;71.73;99706.14;215912;1276;139780;-64
2022/07/10 05:28:00;;;;;;;3.70;1.10;;;;;;;21.78;67.55;99708.36;215638;1276;139179;-64
2022/07/10 05:33:04;;;;;;;7.10;1.70;;;;;;;26.52;62.30;99705.02;213994;1276;139513;-63
2022/07/10 05:38:09;;;;;;;6.40;2.10;;;;;;;28.34;58.30;99711.85;213337;1276;140223;-63
2022/07/10 05:43:13;;;;;;;3.70;1.40;;;;;;;27.94;56.46;99715.55;214433;1276;139308;-62
2022/07/10 05:48:17;;;;;;;3.00;1.40;;;;;;;26.29;55.44;99715.58;215042;1276;139136;-63
2022/07/10 05:53:21;;;;;;;4.40;1.50;;;;;;;24.29;54.60;99721.14;214309;1276;140208;-61
2022/07/10 05:58:25;;;;;;;3.10;1.70;;;;;;;22.82;55.65;99725.83;214135;1276;140490;-63
2022/07/10 06:03:30;;;;;;;6.20;2.30;;;;;;;21.80;56.18;99730.92;213681;1276;139402;-63
2022/07/10 06:08:41;;;;;;;1.60;1.50;;;;;;;21.99;56.21;99731.81;214045;1276;140010;-61
2022/07/10 06:13:46;;;;;;;5.00;1.50;;;;;;;22.97;55.16;99727.20;213549;1275;141932;-61
2022/07/10 06:18:51;;;;;;;4.10;1.60;;;;;;;25.45;53.90;99726.75;214121;1276;139442;-62
2022/07/10 06:23:58;;;;;;;8.10;1.60;;;;;;;27.18;52.01;99728.94;212611;1276;142185;-62
2022/07/10 06:29:03;;;;;;;1.30;1.00;;;;;;;26.53;50.58;99727.02;214011;1276;139577;-62
2022/07/10 06:34:07;;;;;;;7.30;1.80;;;;;;;26.73;49.50;99728.97;213026;1276;142648;-61
2022/07/10 06:39:11;;;;;;;5.90;1.60;;;;;;;26.45;48.77;99734.73;212965;1276;140439;-62
2022/07/10 06:44:15;;;;;;;1.40;1.30;;;;;;;26.55;48.14;99729.55;214094;1276;141921;-62
2022/07/10 06:49:21;;;;;;;4.60;1.40;;;;;;;26.83;48.01;99725.23;215247;1276;141926;-61
2022/07/10 06:54:27;;;;;;;7.00;1.80;;;;;;;25.99;47.65;99726.23;212988;1275;141902;-61
2022/07/10 06:59:32;;;;;;;7.30;1.40;;;;;;;24.79;48.05;99726.80;214477;1275;141333;-60
2022/07/10 07:04:37;;;;;;;3.10;1.50;;;;;;;23.76;48.79;99724.33;214187;1276;139637;-61
2022/07/10 07:09:43;;;;;;;4.50;1.20;;;;;;;23.34;49.79;99728.52;214739;1276;139490;-63
2022/07/10 07:14:49;;;;;;;4.10;1.00;;;;;;;23.45;49.82;99722.77;215393;1276;141033;-61
2022/07/10 07:25:18;;;;;;;4.90;0.90;;;;;;;23.13;50.59;99726.85;216050;1276;140504;-61
2022/07/10 07:30:22;;;;;;;1.90;1.10;;;;;;;22.98;49.78;99723.31;213848;1276;141321;-61
2022/07/10 07:35:27;;;;;;;1.60;1.30;;;;;;;22.58;50.01;99716.68;214545;1276;140318;-63
2022/07/10 07:40:33;;;;;;;1.70;1.40;;;;;;;22.56;50.94;99713.71;213946;1276;140147;-62
2022/07/10 07:45:38;;;;;;;3.20;1.60;;;;;;;22.38;50.60;99713.38;214494;1276;140702;-63
2022/07/10 07:50:44;;;;;;;;;;;;;;;22.75;51.59;99713.60;213106;1276;140779;-61
2022/07/10 07:55:49;;;;;;;1.30;0.90;;;;;;;23.41;50.85;99708.79;214648;1276;126909;-61
2022/07/10 08:00:54;;;;;;;3.40;0.80;;;;;;;23.31;49.94;99709.86;213066;1276;140393;-61
2022/07/10 08:05:59;;;;;;;2.30;1.00;;;;;;;23.32;49.52;99716.15;213557;1276;139793;-61
2022/07/10 08:11:08;;;;;;;4.70;1.60;;;;;;;22.50;49.15;99720.71;213602;1276;140837;-61
2022/07/10 08:16:13;;;;;;;7.00;2.20;;;;;;;22.97;50.27;99719.87;213989;1276;140389;-60
2022/07/10 08:21:17;;;;;;;1.50;1.00;;;;;;;22.96;49.44;99724.88;214446;1276;139531;-61
2022/07/10 08:26:22;;;;;;;6.30;1.90;;;;;;;22.21;48.97;99736.30;213200;1275;140630;-62
2022/07/10 08:31:27;;;;;;;2.80;1.50;;;;;;;22.00;49.62;99736.14;214524;1276;140319;-64
2022/07/10 08:36:32;;;;;;;4.40;1.40;;;;;;;22.32;50.29;99733.04;214440;1276;140092;-64
2022/07/10 08:41:52;;;;;;;5.50;5.00;;;;;;;22.72;50.03;99725.05;214239;1276;140028;-64
2022/07/10 08:46:57;;;;;;;1.90;1.30;;;;;;;22.08;49.20;99731.63;214859;1276;140185;-62
2022/07/10 08:52:05;;;;;;;2.00;1.00;;;;;;;21.27;49.06;99734.05;214515;1277;140199;-61
2022/07/10 08:57:11;;;;;;;1.00;1.00;;;;;;;20.70;49.75;99740.92;214718;1276;141117;-62
2022/07/10 09:02:15;;;;;;;2.90;1.90;;;;;;;20.12;49.15;99756.98;215751;1276;141025;-61
2022/07/10 09:07:24;;;;;;;2.00;1.60;;;;;;;19.24;50.18;99764.96;215955;1276;141357;-64
2022/07/10 09:12:29;;;;;;;2.00;1.10;;;;;;;18.71;51.79;99764.21;215809;1276;139583;-63
2022/07/10 09:17:53;;;;;;;3.10;1.00;;;;;;;18.50;53.48;99760.64;215533;1276;139739;-63
2022/07/10 09:23:22;;;;;;;2.30;1.00;;;;;;;18.50;54.84;99755.77;215168;1276;141278;-64
2022/07/10 09:28:32;;;;;;;2.70;1.20;;;;;;;18.50;55.70;99750.39;213308;1276;140545;-64
2022/07/10 09:33:46;;;;;;;1.90;1.20;;;;;;;18.67;56.92;99741.25;213437;1276;141523;-64
2022/07/10 09:38:57;;;;;;;2.90;1.10;;;;;;;18.91;57.51;99733.30;213919;1276;141306;-64
2022/07/10 09:44:11;;;;;;;1.60;0.90;;;;;;;19.19;57.64;99726.72;213908;1276;140131;-64
2022/07/10 09:49:22;;;;;;;1.30;0.80;;;;;;;19.64;57.64;99718.27;214521;1276;140624;-63
2022/07/10 09:54:31;;;;;;;2.60;1.10;;;;;;;20.01;57.68;99715.56;213258;1276;142243;-63
2022/07/10 09:59:48;;;;;;;3.70;1.20;;;;;;;20.34;57.24;99706.64;213102;1277;142230;-63
2022/07/10 10:05:01;;;;;;;8.00;1.40;;;;;;;20.41;56.30;99706.71;214430;1276;140724;-64
2022/07/10 10:10:20;;;;;;;3.20;0.90;;;;;;;20.14;55.81;99714.56;213484;1276;140329;-62
2022/07/10 10:15:32;;;;;;;8.50;1.00;;;;;;;19.88;56.02;99713.46;213101;1276;142195;-63
2022/07/10 10:20:46;;;;;;;1.20;0.60;;;;;;;19.62;56.72;99712.69;213785;1276;139925;-63
2022/07/10 10:25:56;;;;;;;2.90;0.90;;;;;;;19.57;57.16;99712.02;213234;1276;141726;-62
2022/07/10 10:31:08;;;;;;;1.20;1.00;;;;;;;20.11;57.86;99701.42;213871;1276;141106;-62
2022/07/10 10:36:47;;;;;;;3.00;1.10;;;;;;;20.59;57.80;99697.33;213770;1276;141209;-61
2022/07/10 10:41:55;;;;;;;3.40;0.90;;;;;;;20.40;56.31;99698.08;214546;1276;140617;-63
2022/07/10 10:47:07;;;;;;;4.30;1.10;;;;;;;19.85;55.72;99707.40;213208;1276;164055;-63
2022/07/10 10:52:13;;;;;;;1.20;0.80;;;;;;;19.08;55.49;99716.76;213022;1276;141170;-64
2022/07/10 10:57:19;;;;;;;4.00;1.10;;;;;;;18.65;56.33;99718.21;214112;1276;140217;-63
2022/07/10 11:02:27;;;;;;;1.50;0.80;;;;;;;18.86;57.34;99712.29;214792;1276;236368;-64
2022/07/10 11:07:58;;;;;;;4.20;1.10;;;;;;;19.27;57.47;99714.39;215068;1277;551516;-64
2022/07/10 11:13:07;;;;;;;2.30;0.50;;;;;;;19.93;57.31;99709.33;214657;1276;140745;-61
2022/07/10 11:18:13;;;;;;;5.40;0.90;;;;;;;20.14;56.38;99705.55;214649;1276;140437;-62
2022/07/10 11:23:25;;;;;;;0.50;0.40;;;;;;;20.77;56.50;99702.96;215739;1274;140506;-62
2022/07/10 11:28:53;;;;;;;1.80;1.00;;;;;;;21.41;55.75;99703.98;215308;1276;139438;-61
2022/07/10 11:33:58;;;;;;;1.60;0.80;;;;;;;21.66;54.66;99703.75;214815;1276;141262;-64
2022/07/10 11:39:07;;;;;;;3.70;1.10;;;;;;;20.99;53.83;99701.00;213920;1276;140282;-61
2022/07/10 11:44:20;;;;;;;1.50;0.40;;;;;;;20.51;54.09;99701.73;214710;1276;139827;-62
2022/07/10 11:49:24;;;;;;;0.50;0.50;;;;;;;20.58;53.70;99697.63;214653;1276;139762;-61
2022/07/10 11:54:42;;;;;;;1.10;0.90;;;;;;;20.80;53.24;99693.92;214224;1276;140597;-65
2022/07/10 11:59:48;;;;;;;1.80;0.70;;;;;;;20.73;52.82;99693.09;213777;1276;140386;-64
2022/07/10 12:04:52;;;;;;;4.60;1.00;;;;;;;20.37;52.60;99698.30;213285;1276;139318;-63
2022/07/10 12:09:55;;;;;;;5.90;0.90;;;;;;;19.85;52.75;99712.64;213264;1276;139878;-63
2022/07/10 12:14:59;;;;;;;0.80;0.60;;;;;;;19.42;52.75;99722.44;215015;1276;139875;-63
2022/07/10 12:20:03;;;;;;;2.20;0.50;;;;;;;19.16;53.18;99718.81;213704;1276;140029;-64
2022/07/10 12:25:09;;;;;;;0.40;0.40;;;;;;;19.61;53.70;99703.71;214563;1276;140015;-64
2022/07/10 12:30:14;;;;;;;0.80;0.50;;;;;;;20.34;53.48;99693.59;214778;1276;139677;-64
2022/07/10 12:35:20;;;;;;;0.70;0.60;;;;;;;20.89;52.65;99692.20;212880;1276;140632;-64
2022/07/10 12:40:34;;;;;;;1.20;0.50;;;;;;;21.00;51.34;99696.33;214513;1276;140222;-65
2022/07/10 12:45:43;;;;;;;3.40;1.00;;;;;;;21.10;50.51;99696.90;214729;1276;140152;-63
2022/07/10 12:50:52;;;;;;;2.80;0.40;;;;;;;21.31;49.84;99697.66;214143;1276;140173;-64
2022/07/10 12:56:02;;;;;;;1.30;0.70;;;;;;;21.51;49.66;99692.89;215923;1276;140914;-65
2022/07/10 13:01:09;;;;;;;2.50;0.90;;;;;;;21.68;49.35;99693.63;214059;1276;140290;-66
2022/07/10 13:06:31;;;;;;;2.50;0.90;;;;;;;21.90;49.09;99688.40;214828;1276;140190;-63
2022/07/10 13:11:36;;;;;;;0.60;0.40;;;;;;;21.88;48.46;99689.59;215726;1276;140223;-63
2022/07/10 13:16:41;;;;;;;1.50;0.50;;;;;;;21.74;48.13;99685.95;215737;1276;140818;-64
2022/07/10 13:21:47;;;;;;;8.30;1.00;;;;;;;21.88;48.12;99683.84;215748;1276;141205;-63
2022/07/10 13:26:52;;;;;;;1.70;0.30;;;;;;;22.24;47.93;99679.50;214109;1276;142353;-64
2022/07/10 13:32:02;;;;;;;4.60;0.80;;;;;;;22.36;47.39;99681.21;215091;1276;140135;-64
2022/07/10 13:37:13;;;;;;;0.50;0.50;;;;;;;22.29;47.09;99681.78;214476;1276;142193;-63
2022/07/10 13:42:19;;;;;;;4.80;1.40;;;;;;;21.80;47.21;99705.19;213064;1276;141567;-63
2022/07/10 13:47:23;;;;;;;1.90;0.70;;;;;;;21.03;47.93;99721.06;213433;1276;141337;-65
2022/07/10 13:52:37;;;;;;;0.90;0.80;;;;;;;20.21;49.42;99733.11;214313;1276;151762;-64
2022/07/10 13:57:44;;;;;;;1.90;0.80;;;;;;;19.58;51.06;99740.04;213248;1276;140506;-64
2022/07/10 14:03:02;;;;;;;0.70;0.60;;;;;;;19.13;52.73;99739.77;212832;1276;222276;-63
2022/07/10 14:08:51;;;;;;;1.00;1.00;;;;;;;18.87;54.34;99731.04;213299;1276;139852;-63
2022/07/10 14:14:15;;;;;;;7.80;1.50;;;;;;;18.74;55.50;99724.11;212851;1276;140489;-65
2022/07/10 14:19:41;;;;;;;1.00;0.70;;;;;;;18.59;56.56;99719.37;213179;1276;140655;-62
2022/07/10 14:24:53;;;;;;;5.10;1.50;;;;;;;18.81;56.74;99719.16;213485;1276;139674;-63
2022/07/10 14:30:04;;;;;;;2.70;0.70;;;;;;;18.96;56.93;99726.52;213922;1276;140274;-63
2022/07/10 14:35:10;;;;;;;1.10;1.00;;;;;;;18.99;56.29;99730.70;213472;1276;141760;-64
2022/07/10 14:40:14;;;;;;;2.20;1.00;;;;;;;18.92;56.13;99734.44;212673;1277;139531;-64
2022/07/10 14:45:21;;;;;;;1.30;0.80;;;;;;;18.89;55.91;99736.15;213561;1277;140067;-65
2022/07/10 14:50:47;;;;;;;1.10;1.00;;;;;;;18.90;55.83;99738.35;213204;1276;139497;-64
2022/07/10 14:55:54;;;;;;;1.20;0.80;;;;;;;18.95;55.72;99734.88;215238;1276;139290;-66
2022/07/10 15:01:02;;;;;;;1.40;0.60;;;;;;;19.02;55.53;99731.36;215847;1276;140173;-65
2022/07/10 15:06:08;;;;;;;3.80;0.90;;;;;;;19.10;55.35;99734.41;215718;1276;141371;-63
2022/07/10 15:11:13;;;;;;;4.00;1.50;;;;;;;19.06;55.39;99736.67;215846;1276;140054;-62
2022/07/10 15:16:22;;;;;;;0.80;0.80;;;;;;;19.01;55.59;99739.60;215744;1276;139893;-63
2022/07/10 15:21:28;;;;;;;2.40;0.70;;;;;;;18.91;55.54;99756.63;215296;1274;140939;-63
2022/07/10 15:26:34;;;;;;;4.20;0.80;;;;;;;18.52;55.02;99778.98;214192;1276;139554;-64
2022/07/10 15:31:41;;;;;;;;;;;;;;;17.90;55.74;99788.81;214649;1277;139769;-62
2022/07/10 15:36:48;;;;;;;1.60;0.80;;;;;;;17.40;57.34;99785.39;215358;1277;125867;-63
2022/07/10 15:41:56;;;;;;;1.40;0.70;;;;;;;16.98;58.34;99779.84;214270;1277;139484;-64
2022/07/10 15:47:08;;;;;;;2.10;1.10;;;;;;;16.77;59.41;99781.16;213894;1277;140472;-63
2022/07/10 15:52:24;;;;;;;1.00;1.00;;;;;;;16.59;60.34;99786.83;214355;1277;141731;-63
2022/07/10 15:57:38;;;;;;;6.30;1.90;;;;;;;16.64;61.24;99786.94;214026;1277;205922;-63
2022/07/10 16:02:51;;;;;;;2.20;1.20;;;;;;;16.92;61.95;99780.83;214645;1276;139701;-64
2022/07/10 16:08:02;;;;;;;2.20;1.40;;;;;;;17.26;62.29;99782.67;217239;1268;140621;-65
2022/07/10 16:13:07;;;;;;;1.50;1.30;;;;;;;17.34;62.39;99789.75;213666;1279;141168;-63
2022/07/10 16:18:15;;;;;;;2.70;0.90;;;;;;;17.26;62.57;99802.34;212776;1279;140260;-62
2022/07/10 16:23:27;;;;;;;2.00;1.40;;;;;;;17.10;62.52;99802.09;212963;1279;140822;-64
2022/07/10 16:28:35;;;;;;;2.40;1.20;;;;;;;16.93;62.38;99809.91;212811;1279;140401;-62
2022/07/10 16:33:43;;;;;;;1.70;0.90;;;;;;;16.83;62.41;99809.71;212718;1281;140362;-62
2022/07/10 16:38:54;;;;;;;3.40;1.50;;;;;;;16.82;62.82;99812.20;212484;1279;141002;-65
2022/07/10 16:44:39;;;;;;;2.20;1.30;;;;;;;16.87;63.05;99809.77;212478;1278;142330;-66
2022/07/10 16:49:52;;;;;;;3.50;1.50;;;;;;;16.95;63.55;99811.58;212757;1279;140333;-65
2022/07/10 16:54:58;;;;;;;1.30;0.80;;;;;;;16.93;63.50;99808.56;212621;1281;139697;-64
2022/07/10 17:00:07;;;;;;;1.80;1.20;;;;;;;16.80;63.68;99809.09;212926;1279;140170;-65
2022/07/10 17:05:13;;;;;;;0.60;0.60;;;;;;;16.66;63.89;99812.23;212628;1279;139918;-66
2022/07/10 17:10:20;;;;;;;0.60;0.60;;;;;;;16.58;64.29;99812.87;212802;1279;208783;-65
2022/07/10 17:15:27;;;;;;;4.30;1.10;;;;;;;16.55;64.54;99815.41;212783;1279;140348;-65
2022/07/10 17:20:31;;;;;;;2.00;1.10;;;;;;;16.54;64.91;99817.77;212390;1279;141399;-66
2022/07/10 17:25:37;;;;;;;3.70;1.40;;;;;;;16.46;65.10;99823.77;212762;1279;209991;-65
2022/07/10 17:30:45;;;;;;;4.70;1.20;;;;;;;16.33;65.65;99831.14;212987;1279;140306;-65
2022/07/10 17:35:51;;;;;;;0.50;0.50;;;;;;;16.31;65.98;99836.95;212757;1279;140167;-64
2022/07/10 17:40:57;;;;;;;0.90;0.90;;;;;;;16.37;65.75;99832.66;214882;1281;140308;-66
2022/07/10 17:46:02;;;;;;;6.90;1.70;;;;;;;16.43;65.68;99826.30;215131;1279;139394;-65
2022/07/10 17:51:08;;;;;;;3.20;1.40;;;;;;;16.53;66.05;99827.30;215034;1279;141492;-65
2022/07/10 17:56:23;;;;;;;2.80;1.30;;;;;;;16.61;65.91;99833.48;214851;1280;139874;-65
2022/07/10 18:01:32;;;;;;;2.40;1.00;;;;;;;16.66;66.06;99844.98;215282;1280;151357;-65
2022/07/10 18:06:44;;;;;;;4.30;1.40;;;;;;;16.65;66.05;99851.80;215216;1279;150975;-66
2022/07/10 18:11:52;;;;;;;3.00;1.40;;;;;;;16.57;66.26;99870.25;213029;1279;140858;-64
2022/07/10 18:16:58;;;;;;;1.20;1.10;;;;;;;16.54;66.45;99872.18;212856;1279;141983;-64
2022/07/10 18:22:03;;;;;;;2.80;0.50;;;;;;;16.35;66.03;99899.97;212996;1279;141230;-65
2022/07/10 18:27:14;;;;;;;5.10;0.50;;;;;;;15.91;65.18;99896.63;212811;1279;141500;-66
2022/07/10 18:37:53;;;;;;;0.40;0.40;;;;;;;15.29;65.58;99895.90;212755;1279;139468;-66
2022/07/10 18:43:06;;;;;;;1.80;0.50;;;;;;;15.05;65.93;99900.61;212827;1279;139961;-65
2022/07/10 18:48:15;;;;;;;1.10;0.40;;;;;;;14.78;66.07;99896.04;212925;1279;140545;-65
2022/07/10 18:53:25;;;;;;;0.40;0.40;;;;;;;14.53;66.32;99891.19;212839;1279;141214;-64
2022/07/10 18:58:36;;;;;;;0.40;0.30;;;;;;;14.37;66.87;99888.08;212667;1279;140314;-65
2022/07/10 19:03:48;;;;;;;0.30;0.30;;;;;;;14.11;66.92;99891.18;212886;1279;140109;-65
2022/07/10 19:08:57;;;;;;;0.40;0.40;;;;;;;13.96;67.56;99891.04;212664;1281;140110;-65
2022/07/10 19:14:09;;;;;;;0.60;0.40;;;;;;;13.85;68.08;99890.16;212838;1280;140643;-65
2022/07/10 19:19:24;;;;;;;0.20;0.20;;;;;;;13.82;68.33;99896.77;213038;1279;140649;-64
2022/07/10 19:24:39;;;;;;;0.70;0.40;;;;;;;13.72;68.41;99901.50;212837;1280;140723;-65
2022/07/10 19:29:50;;;;;;;0.50;0.30;;;;;;;13.53;68.38;99892.55;212982;1279;139801;-65
2022/07/10 19:35:02;;;;;;;0.30;0.30;;;;;;;13.32;68.82;99885.06;213014;1281;140774;-65
2022/07/10 19:40:13;;;;;;;2.90;0.50;;;;;;;13.28;69.44;99887.05;212879;1280;139910;-65
2022/07/10 19:45:27;;;;;;;0.40;0.40;;;;;;;13.30;69.97;99882.89;213706;1279;140995;-66
2022/07/10 19:50:41;;;;;;;0.80;0.40;;;;;;;13.28;69.95;99880.20;215106;1280;140062;-66
2022/07/10 19:55:50;;;;;;;0.20;0.20;;;;;;;13.29;70.17;99878.82;215016;1280;140380;-65
2022/07/10 20:01:02;;;;;;;1.10;0.30;;;;;;;13.22;69.88;99875.83;214975;1279;140816;-65
2022/07/10 20:06:16;;;;;;;1.70;0.40;;;;;;;13.24;70.24;99873.88;214943;1279;140427;-66
2022/07/10 20:11:26;;;;;;;0.30;0.30;;;;;;;13.13;69.97;99873.40;213436;1279;140002;-65
2022/07/10 20:16:35;;;;;;;0.30;0.30;;;;;;;13.06;70.10;99874.11;213114;1279;140341;-65
2022/07/10 20:21:48;;;;;;;0.40;0.40;;;;;;;13.05;70.35;99869.96;212919;1279;153662;-65
2022/07/10 20:27:01;;;;;;;2.40;1.40;;;;;;;12.99;70.52;99871.88;212897;1281;142246;-63
2022/07/10 20:32:09;;;;;;;0.50;0.50;;;;;;;12.93;70.84;99872.85;213005;1279;141954;-64
2022/07/10 20:42:46;;;;;;;2.00;1.10;;;;;;;12.77;70.82;99880.08;212862;1279;143111;-64
2022/07/10 20:47:58;;;;;;;0.70;0.70;;;;;;;12.72;71.01;99877.53;212807;1279;208050;-64
2022/07/10 20:53:11;;;;;;;1.00;0.90;;;;;;;12.64;71.16;99884.04;212814;1280;140199;-65
2022/07/10 20:58:19;;;;;;;2.20;1.70;;;;;;;12.58;71.48;99893.89;212892;1279;139955;-64
2022/07/10 21:03:33;;;;;;;2.70;1.60;;;;;;;12.58;71.81;99893.23;212707;1279;139996;-65
2022/07/10 21:08:45;;;;;;;3.10;1.80;;;;;;;12.56;72.03;99894.92;212857;1281;142962;-64
2022/07/10 21:13:55;;;;;;;1.60;1.50;;;;;;;12.52;72.33;99895.52;212740;1279;141085;-65
2022/07/10 21:19:05;;;;;;;1.40;1.30;;;;;;;12.46;72.69;99903.36;212927;1279;141527;-64
2022/07/10 21:24:15;;;;;;;1.70;1.30;;;;;;;12.49;73.10;99899.69;213007;1279;140331;-64
2022/07/10 21:29:21;;;;;;;1.70;1.60;;;;;;;12.49;73.13;99900.87;214746;1279;140616;-67
2022/07/10 21:34:30;;;;;;;4.50;1.20;;;;;;;12.50;73.25;99897.58;215218;1278;140470;-66
2022/07/10 21:39:38;;;;;;;3.10;1.20;;;;;;;12.51;73.46;99893.75;215147;1279;140552;-65
2022/07/10 21:44:49;;;;;;;1.70;1.00;;;;;;;12.53;73.36;99894.78;215123;1279;141028;-65
2022/07/10 21:49:59;;;;;;;3.30;1.90;;;;;;;12.54;73.29;99899.76;215107;1279;140996;-65
2022/07/10 21:55:07;;;;;;;2.40;1.40;;;;;;;12.55;73.32;99891.37;215129;1279;140908;-65
2022/07/10 22:00:15;;;;;;;4.00;1.20;;;;;;;12.58;73.30;99894.21;214893;1281;140519;-65
2022/07/10 22:05:22;;;;;;;1.60;1.50;;;;;;;12.61;73.07;99900.67;214375;1281;141502;-64
2022/07/10 22:10:30;;;;;;;1.30;1.20;;;;;;;12.56;73.06;99899.95;213872;1281;141473;-65
2022/07/10 22:15:37;;;;;;;2.00;1.70;;;;;;;12.50;72.91;99902.82;213346;1280;140915;-64
2022/07/10 22:20:44;;;;;;;2.30;0.90;;;;;;;12.44;73.09;99901.86;213292;1281;140057;-65
2022/07/10 22:25:52;;;;;;;5.30;1.20;;;;;;;12.40;73.16;99895.60;213131;1281;139999;-65
2022/07/10 22:31:21;;;;;;;0.70;0.70;;;;;;;12.39;73.47;99895.58;213133;1281;139523;-64
2022/07/10 22:36:30;;;;;;;1.60;1.40;;;;;;;12.39;73.37;99891.20;212909;1281;139551;-64
2022/07/10 22:41:36;;;;;;;1.60;1.50;;;;;;;12.31;73.35;99888.59;212874;1281;140615;-64
2022/07/10 22:46:44;;;;;;;1.80;1.10;;;;;;;12.17;73.19;99890.03;213108;1280;140330;-65
2022/07/10 22:51:49;;;;;;;3.90;1.90;;;;;;;12.04;73.07;99890.11;212932;1279;141948;-64
2022/07/10 22:56:56;;;;;;;4.70;1.40;;;;;;;11.89;73.27;99889.04;212934;1281;141360;-64
2022/07/10 23:02:01;;;;;;;1.40;1.00;;;;;;;11.78;73.65;99884.95;213039;1281;140721;-64
2022/07/10 23:07:13;;;;;;;0.80;0.80;;;;;;;11.80;74.03;99878.58;211004;1281;3020459;-64
2022/07/10 23:12:19;;;;;;;3.40;1.20;;;;;;;11.81;73.97;99881.20;212848;1281;141649;-65
2022/07/10 23:17:24;;;;;;;1.10;1.10;;;;;;;11.78;74.26;99875.17;213167;1281;141449;-64
2022/07/10 23:22:29;;;;;;;2.30;1.40;;;;;;;11.77;74.39;99875.85;213253;1280;140201;-64
2022/07/10 23:27:33;;;;;;;6.20;1.40;;;;;;;11.74;74.32;99872.45;212883;1281;140974;-65
2022/07/10 23:32:39;;;;;;;5.20;2.30;;;;;;;11.69;74.41;99875.70;213202;1281;141422;-65
2022/07/10 23:37:44;;;;;;;1.40;1.00;;;;;;;11.69;74.73;99875.70;215447;1281;141496;-65
2022/07/10 23:42:48;;;;;;;2.10;1.20;;;;;;;11.72;74.42;99874.06;215236;1279;150551;-65
2022/07/10 23:47:53;;;;;;;1.20;1.10;;;;;;;11.69;74.65;99877.42;215054;1279;139859;-65
2022/07/10 23:52:57;;;;;;;2.40;1.30;;;;;;;11.73;74.66;99876.27;215113;1279;141166;-66
2022/07/10 23:58:05;;;;;;;1.20;1.10;;;;;;;11.76;74.66;99879.80;214655;1279;141562;-66
